Time,TemperatureF,DewpointF,PressureIn,WindDirection,WindDirectionDegrees,WindSpeedMPH,WindSpeedGustMPH,Humidity,HourlyPrecipIn,Conditions,Clouds,dailyrainin,SoftwareType,DateUTC
2013-09-22 00:00:00,69.9,67.2,29.73,SSE,158,12.9,16.3,91,0.00,,,0.06,VWS V13.00,2013-09-22 04:00:00,
2013-09-22 00:01:00,69.8,67.1,29.73,SSE,158,11.1,11.1,91,0.00,,,0.00,VWS V13.00,2013-09-22 04:01:00,
2013-09-22 00:02:00,69.8,67.1,29.73,SSE,158,11.1,11.1,91,0.00,,,0.00,VWS V13.00,2013-09-22 04:02:00,
2013-09-22 00:03:00,69.8,67.1,29.73,SSE,158,16.1,16.1,91,0.00,,,0.00,VWS V13.00,2013-09-22 04:03:00,
2013-09-22 00:08:00,69.6,66.9,29.73,SSE,158,19.9,19.9,91,0.00,,,0.00,VWS V13.00,2013-09-22 04:08:00,
2013-09-22 00:13:00,69.0,66.3,29.73,SSW,202,13.8,19.9,91,0.00,,,0.00,VWS V13.00,2013-09-22 04:13:00,
2013-09-22 00:18:00,68.9,66.2,29.73,SSE,158,9.6,19.9,91,0.00,,,0.00,VWS V13.00,2013-09-22 04:18:00,
2013-09-22 00:23:00,68.7,65.7,29.72,South,180,13.4,13.4,90,0.00,,,0.00,VWS V13.00,2013-09-22 04:23:00,
2013-09-22 00:28:00,68.7,65.7,29.72,South,180,9.8,13.4,90,0.00,,,0.00,VWS V13.00,2013-09-22 04:28:00,
2013-09-22 00:33:00,68.7,65.7,29.72,SSE,158,13.6,13.6,90,0.02,,,0.02,VWS V13.00,2013-09-22 04:33:00,
2013-09-22 00:38:00,68.5,65.5,29.71,SE,135,11.8,15.2,90,0.02,,,0.02,VWS V13.00,2013-09-22 04:38:00,
2013-09-22 00:43:00,68.5,65.8,29.71,ESE,112,9.1,9.1,91,0.02,,,0.02,VWS V13.00,2013-09-22 04:43:00,
2013-09-22 00:48:00,68.5,65.8,29.71,South,180,17.0,17.0,91,0.02,,,0.02,VWS V13.00,2013-09-22 04:48:00,
2013-09-22 00:53:00,68.5,65.8,29.72,SE,135,10.5,17.0,91,0.02,,,0.02,VWS V13.00,2013-09-22 04:53:00,
2013-09-22 00:58:00,68.7,66.0,29.71,SSE,158,13.1,17.0,91,0.02,,,0.02,VWS V13.00,2013-09-22 04:58:00,
2013-09-22 01:03:00,68.7,66.3,29.71,South,180,8.2,17.0,92,0.02,,,0.02,VWS V13.00,2013-09-22 05:03:00,
2013-09-22 01:08:00,68.9,66.5,29.71,South,180,19.2,19.2,92,0.02,,,0.02,VWS V13.00,2013-09-22 05:08:00,
2013-09-22 01:13:00,69.0,66.6,29.71,SE,135,9.8,19.2,92,0.02,,,0.02,VWS V13.00,2013-09-22 05:13:00,
2013-09-22 01:18:00,69.0,66.6,29.71,SSE,158,11.8,19.2,92,0.02,,,0.02,VWS V13.00,2013-09-22 05:18:00,
2013-09-22 01:23:00,69.0,66.6,29.71,ESE,112,14.7,15.8,92,0.04,,,0.04,VWS V13.00,2013-09-22 05:23:00,
2013-09-22 01:28:00,69.0,66.6,29.71,South,180,18.1,19.6,92,0.04,,,0.04,VWS V13.00,2013-09-22 05:28:00,
2013-09-22 01:33:00,68.3,65.6,29.71,SSE,158,21.2,21.2,91,0.02,,,0.04,VWS V13.00,2013-09-22 05:33:00,
2013-09-22 01:38:00,67.6,64.9,29.71,SE,135,17.2,22.8,91,0.04,,,0.06,VWS V13.00,2013-09-22 05:38:00,
2013-09-22 01:43:00,67.2,64.5,29.71,ESE,112,13.1,19.9,91,0.04,,,0.06,VWS V13.00,2013-09-22 05:43:00,
2013-09-22 01:48:00,66.9,64.2,29.71,SSE,158,7.8,19.9,91,0.04,,,0.06,VWS V13.00,2013-09-22 05:48:00,
2013-09-22 01:53:00,66.7,64.3,29.71,SSE,158,10.9,20.1,92,0.08,,,0.10,VWS V13.00,2013-09-22 05:53:00,
2013-09-22 01:58:00,66.7,64.3,29.71,South,180,9.3,20.1,92,0.08,,,0.10,VWS V13.00,2013-09-22 05:58:00,
2013-09-22 02:03:00,66.5,64.1,29.71,SSE,158,14.7,15.6,92,0.10,,,0.12,VWS V13.00,2013-09-22 06:03:00,
2013-09-22 02:08:00,66.5,64.1,29.71,SSE,158,15.8,15.8,92,0.10,,,0.12,VWS V13.00,2013-09-22 06:08:00,
2013-09-22 02:13:00,66.3,63.9,29.71,SSE,158,17.2,17.2,92,0.10,,,0.12,VWS V13.00,2013-09-22 06:13:00,
2013-09-22 02:18:00,66.3,63.9,29.71,SE,135,16.7,17.2,92,0.10,,,0.12,VWS V13.00,2013-09-22 06:18:00,
2013-09-22 02:23:00,66.3,63.9,29.71,ESE,112,12.7,12.9,92,0.10,,,0.15,VWS V13.00,2013-09-22 06:23:00,
2013-09-22 02:28:00,66.3,64.2,29.71,SSE,158,11.1,18.3,93,0.12,,,0.17,VWS V13.00,2013-09-22 06:28:00,
2013-09-22 02:33:00,66.3,64.2,29.71,SSE,158,11.4,18.3,93,0.10,,,0.17,VWS V13.00,2013-09-22 06:33:00,
2013-09-22 02:38:00,66.2,64.1,29.70,SE,135,7.6,18.3,93,0.12,,,0.19,VWS V13.00,2013-09-22 06:38:00,
2013-09-22 02:43:00,66.2,64.1,29.69,SSE,158,12.3,12.3,93,0.12,,,0.19,VWS V13.00,2013-09-22 06:43:00,
2013-09-22 02:48:00,66.2,64.1,29.69,ESE,112,8.0,12.3,93,0.12,,,0.20,VWS V13.00,2013-09-22 06:48:00,
2013-09-22 02:53:00,66.0,63.9,29.69,SSE,158,6.2,12.3,93,0.10,,,0.20,VWS V13.00,2013-09-22 06:53:00,
2013-09-22 02:58:00,66.0,63.9,29.69,SSE,158,9.1,12.3,93,0.10,,,0.20,VWS V13.00,2013-09-22 06:58:00,
2013-09-22 03:03:00,66.0,63.9,29.69,SSE,158,8.0,8.0,93,0.10,,,0.22,VWS V13.00,2013-09-22 07:03:00,
2013-09-22 03:08:00,66.0,63.9,29.68,SSE,158,5.5,8.2,93,0.10,,,0.22,VWS V13.00,2013-09-22 07:08:00,
2013-09-22 03:13:00,66.0,63.9,29.68,SSE,158,7.3,10.0,93,0.10,,,0.22,VWS V13.00,2013-09-22 07:13:00,
2013-09-22 03:18:00,66.0,63.9,29.68,SSE,158,5.1,10.0,93,0.08,,,0.22,VWS V13.00,2013-09-22 07:18:00,
2013-09-22 03:23:00,66.0,63.9,29.69,SSE,158,7.6,9.8,93,0.08,,,0.22,VWS V13.00,2013-09-22 07:23:00,
2013-09-22 03:28:00,66.0,63.9,29.69,SE,135,8.9,9.8,93,0.06,,,0.22,VWS V13.00,2013-09-22 07:28:00,
2013-09-22 03:33:00,66.2,64.1,29.70,South,180,12.3,12.3,93,0.04,,,0.22,VWS V13.00,2013-09-22 07:33:00,
2013-09-22 03:38:00,66.0,63.9,29.71,SSE,158,15.2,15.2,93,0.04,,,0.22,VWS V13.00,2013-09-22 07:38:00,
2013-09-22 03:43:00,66.0,63.9,29.71,South,180,5.5,11.8,93,0.02,,,0.22,VWS V13.00,2013-09-22 07:43:00,
2013-09-22 03:48:00,66.2,64.1,29.71,SE,135,9.8,11.8,93,0.02,,,0.22,VWS V13.00,2013-09-22 07:48:00,
2013-09-22 03:53:00,66.2,64.1,29.71,SSW,202,8.2,11.8,93,0.04,,,0.24,VWS V13.00,2013-09-22 07:53:00,
2013-09-22 03:58:00,66.2,64.1,29.71,South,180,8.2,11.8,93,0.04,,,0.24,VWS V13.00,2013-09-22 07:58:00,
2013-09-22 04:03:00,66.3,64.2,29.71,SSE,158,3.8,7.3,93,0.02,,,0.24,VWS V13.00,2013-09-22 08:03:00,
2013-09-22 04:08:00,66.3,64.2,29.71,NNE,22,4.0,8.9,93,0.02,,,0.24,VWS V13.00,2013-09-22 08:08:00,
2013-09-22 04:13:00,66.2,64.1,29.70,NW,315,2.9,8.9,93,0.04,,,0.27,VWS V13.00,2013-09-22 08:13:00,
2013-09-22 04:18:00,65.3,63.2,29.71,NW,315,4.4,8.9,93,0.04,,,0.27,VWS V13.00,2013-09-22 08:18:00,
2013-09-22 04:23:00,64.7,62.6,29.71,NW,315,4.4,5.5,93,0.04,,,0.27,VWS V13.00,2013-09-22 08:23:00,
2013-09-22 04:28:00,64.5,62.4,29.71,NNE,22,3.3,5.5,93,0.06,,,0.29,VWS V13.00,2013-09-22 08:28:00,
2013-09-22 04:33:00,64.2,62.1,29.71,NNW,338,5.5,5.5,93,0.06,,,0.29,VWS V13.00,2013-09-22 08:33:00,
2013-09-22 04:38:00,64.2,62.1,29.71,NW,315,0.0,5.5,93,0.06,,,0.29,VWS V13.00,2013-09-22 08:38:00,
2013-09-22 04:43:00,64.0,61.9,29.71,NNE,22,2.9,2.9,93,0.06,,,0.29,VWS V13.00,2013-09-22 08:43:00,
2013-09-22 04:48:00,64.0,61.9,29.71,North,0,1.3,4.4,93,0.06,,,0.29,VWS V13.00,2013-09-22 08:48:00,
2013-09-22 04:53:00,64.0,61.9,29.71,NNW,338,0.8,4.4,93,0.04,,,0.29,VWS V13.00,2013-09-22 08:53:00,
2013-09-22 04:59:00,64.0,61.9,29.71,NE,45,3.1,4.4,93,0.04,,,0.29,VWS V13.00,2013-09-22 08:59:00,
2013-09-22 05:04:00,64.0,61.9,29.72,NW,315,2.2,5.8,93,0.04,,,0.29,VWS V13.00,2013-09-22 09:04:00,
2013-09-22 05:09:00,64.0,61.9,29.72,NW,315,9.3,9.3,93,0.02,,,0.29,VWS V13.00,2013-09-22 09:09:00,
2013-09-22 05:14:00,64.0,61.9,29.73,NNW,338,2.4,9.3,93,0.02,,,0.29,VWS V13.00,2013-09-22 09:14:00,
2013-09-22 05:19:00,64.0,61.9,29.73,NW,315,4.9,9.3,93,0.02,,,0.29,VWS V13.00,2013-09-22 09:19:00,
2013-09-22 05:24:00,64.0,61.9,29.73,North,0,5.8,8.5,93,0.02,,,0.29,VWS V13.00,2013-09-22 09:24:00,
2013-09-22 05:29:00,64.2,61.8,29.73,North,0,2.9,8.5,92,0.00,,,0.29,VWS V13.00,2013-09-22 09:29:00,
2013-09-22 05:34:00,64.2,61.8,29.74,NW,315,9.3,9.3,92,0.00,,,0.29,VWS V13.00,2013-09-22 09:34:00,
2013-09-22 05:39:00,64.2,61.8,29.74,NW,315,5.8,9.3,92,0.00,,,0.29,VWS V13.00,2013-09-22 09:39:00,
2013-09-22 05:44:00,64.2,61.8,29.74,WNW,292,4.6,4.9,92,0.00,,,0.29,VWS V13.00,2013-09-22 09:44:00,
2013-09-22 05:49:00,64.2,61.8,29.74,North,0,8.2,8.5,92,0.00,,,0.29,VWS V13.00,2013-09-22 09:49:00,
2013-09-22 05:54:00,64.2,61.8,29.74,North,0,2.2,8.5,92,0.00,,,0.29,VWS V13.00,2013-09-22 09:54:00,
2013-09-22 05:59:00,64.2,61.8,29.74,NNW,338,7.6,8.5,92,0.00,,,0.29,VWS V13.00,2013-09-22 09:59:00,
2013-09-22 06:04:00,64.2,61.8,29.75,WNW,292,0.0,7.6,92,0.00,,,0.29,VWS V13.00,2013-09-22 10:04:00,
2013-09-22 06:09:00,64.2,61.8,29.75,NW,315,2.9,7.6,92,0.00,,,0.29,VWS V13.00,2013-09-22 10:09:00,
2013-09-22 06:14:00,64.2,61.8,29.75,NNW,338,0.0,7.6,92,0.00,,,0.29,VWS V13.00,2013-09-22 10:14:00,
2013-09-22 06:19:00,64.2,61.8,29.75,WNW,292,5.3,7.6,92,0.00,,,0.29,VWS V13.00,2013-09-22 10:19:00,
2013-09-22 06:24:00,64.2,61.8,29.75,WNW,292,1.5,4.6,92,0.00,,,0.29,VWS V13.00,2013-09-22 10:24:00,
2013-09-22 06:29:00,64.2,61.8,29.75,NNW,338,0.0,4.6,92,0.00,,,0.29,VWS V13.00,2013-09-22 10:29:00,
2013-09-22 06:34:00,64.4,62.0,29.76,NW,315,0.0,4.6,92,0.00,,,0.29,VWS V13.00,2013-09-22 10:34:00,
2013-09-22 06:39:00,64.4,62.0,29.76,NNW,338,1.7,4.6,92,0.00,,,0.29,VWS V13.00,2013-09-22 10:39:00,
2013-09-22 06:44:00,64.4,62.0,29.76,WSW,248,0.0,0.0,92,0.00,,,0.29,VWS V13.00,2013-09-22 10:44:00,
2013-09-22 06:49:00,64.4,62.0,29.75,NW,315,5.8,5.8,92,0.00,,,0.29,VWS V13.00,2013-09-22 10:49:00,
2013-09-22 06:58:00,64.2,61.8,29.76,NW,315,0.0,5.8,92,0.02,,,0.31,VWS V13.00,2013-09-22 10:58:00,
2013-09-22 07:03:00,64.2,61.8,29.76,NW,315,0.0,1.1,92,0.02,,,0.31,VWS V13.00,2013-09-22 11:03:00,
2013-09-22 07:08:00,64.2,61.8,29.76,West,270,0.0,3.5,92,0.02,,,0.31,VWS V13.00,2013-09-22 11:08:00,
2013-09-22 07:13:00,64.2,61.8,29.76,NNW,338,2.4,3.5,92,0.02,,,0.31,VWS V13.00,2013-09-22 11:13:00,
2013-09-22 07:18:00,64.2,61.8,29.76,NW,315,0.0,3.5,92,0.02,,,0.31,VWS V13.00,2013-09-22 11:18:00,
2013-09-22 07:23:00,64.2,61.8,29.76,WNW,292,0.8,3.1,92,0.02,,,0.31,VWS V13.00,2013-09-22 11:23:00,
2013-09-22 07:28:00,64.2,61.5,29.77,WNW,292,0.0,3.5,91,0.02,,,0.31,VWS V13.00,2013-09-22 11:28:00,
2013-09-22 07:33:00,64.2,61.5,29.77,NNW,338,2.0,3.5,91,0.02,,,0.31,VWS V13.00,2013-09-22 11:33:00,
2013-09-22 07:38:00,64.2,61.8,29.77,North,0,0.0,3.5,92,0.02,,,0.00,VWS V13.00,2013-09-22 11:38:00,
2013-09-22 07:44:00,64.2,61.5,29.77,NW,315,3.1,3.8,91,0.02,,,0.31,VWS V13.00,2013-09-22 11:44:00,
2013-09-22 07:49:00,64.5,61.8,29.77,WNW,292,8.5,8.5,91,0.02,,,0.31,VWS V13.00,2013-09-22 11:49:00,
2013-09-22 07:54:00,64.5,61.8,29.77,NNW,338,3.8,8.5,91,0.00,,,0.31,VWS V13.00,2013-09-22 11:54:00,
2013-09-22 07:59:00,64.7,62.0,29.77,WNW,292,1.5,8.5,91,0.00,,,0.31,VWS V13.00,2013-09-22 11:59:00,
2013-09-22 08:04:00,64.9,62.2,29.77,WNW,292,7.3,7.3,91,0.00,,,0.31,VWS V13.00,2013-09-22 12:04:00,
2013-09-22 08:09:00,64.9,62.2,29.78,NW,315,3.1,7.3,91,0.00,,,0.31,VWS V13.00,2013-09-22 12:09:00,
2013-09-22 08:14:00,65.1,62.4,29.78,NNW,338,4.2,7.3,91,0.00,,,0.31,VWS V13.00,2013-09-22 12:14:00,
2013-09-22 08:19:00,65.3,62.3,29.78,North,0,8.5,8.5,90,0.00,,,0.31,VWS V13.00,2013-09-22 12:19:00,
2013-09-22 08:24:00,65.4,62.4,29.78,WNW,292,5.8,5.8,90,0.00,,,0.31,VWS V13.00,2013-09-22 12:24:00,
2013-09-22 08:29:00,65.4,62.4,29.78,NNW,338,3.8,5.8,90,0.00,,,0.31,VWS V13.00,2013-09-22 12:29:00,
2013-09-22 08:34:00,65.4,62.1,29.78,NW,315,3.8,9.8,89,0.00,,,0.31,VWS V13.00,2013-09-22 12:34:00,
2013-09-22 08:39:00,65.6,62.3,29.78,WNW,292,1.5,9.8,89,0.00,,,0.31,VWS V13.00,2013-09-22 12:39:00,
2013-09-22 08:44:00,65.6,62.3,29.78,NW,315,6.2,6.2,89,0.00,,,0.31,VWS V13.00,2013-09-22 12:44:00,
2013-09-22 08:49:00,65.4,61.8,29.78,North,0,6.9,6.9,88,0.00,,,0.31,VWS V13.00,2013-09-22 12:49:00,
2013-09-22 08:54:00,65.4,61.4,29.79,WNW,292,3.5,6.9,87,0.00,,,0.31,VWS V13.00,2013-09-22 12:54:00,
2013-09-22 08:59:00,65.4,61.4,29.78,North,0,2.2,6.9,87,0.00,,,0.31,VWS V13.00,2013-09-22 12:59:00,
2013-09-22 09:04:00,65.4,61.1,29.79,WNW,292,4.9,7.6,86,0.00,,,0.31,VWS V13.00,2013-09-22 13:04:00,
2013-09-22 09:09:00,65.4,60.8,29.79,West,270,0.0,8.5,85,0.00,,,0.31,VWS V13.00,2013-09-22 13:09:00,
2013-09-22 09:14:00,65.4,60.5,29.79,NNW,338,7.8,8.5,84,0.00,,,0.31,VWS V13.00,2013-09-22 13:14:00,
2013-09-22 09:19:00,65.4,60.5,29.79,West,270,0.0,8.5,84,0.00,,,0.31,VWS V13.00,2013-09-22 13:19:00,
2013-09-22 09:24:00,65.4,60.5,29.79,NW,315,6.9,6.9,84,0.00,,,0.31,VWS V13.00,2013-09-22 13:24:00,
2013-09-22 09:29:00,65.4,60.1,29.79,NNW,338,6.7,6.9,83,0.00,,,0.31,VWS V13.00,2013-09-22 13:29:00,
2013-09-22 09:34:00,65.8,60.5,29.80,North,0,8.5,8.9,83,0.00,,,0.31,VWS V13.00,2013-09-22 13:34:00,
2013-09-22 09:39:00,66.0,60.3,29.80,NNW,338,10.7,11.1,82,0.00,,,0.31,VWS V13.00,2013-09-22 13:39:00,
2013-09-22 09:44:00,67.2,61.5,29.80,NNE,22,6.0,10.7,82,0.00,,,0.31,VWS V13.00,2013-09-22 13:44:00,
2013-09-22 09:49:00,70.3,64.2,29.80,WNW,292,0.0,10.7,81,0.00,,,0.31,VWS V13.00,2013-09-22 13:49:00,
2013-09-22 09:55:00,73.9,64.7,29.80,NNW,338,4.4,10.7,73,0.00,,,0.31,VWS V13.00,2013-09-22 13:55:00,
2013-09-22 10:00:00,75.2,64.8,29.80,NNW,338,8.7,10.7,70,0.00,,,0.31,VWS V13.00,2013-09-22 14:00:00,
2013-09-22 10:05:00,76.6,64.0,29.80,WNW,292,0.0,15.2,65,0.00,,,0.31,VWS V13.00,2013-09-22 14:05:00,
2013-09-22 10:10:00,78.0,63.9,29.80,NW,315,3.5,15.2,62,0.00,,,0.31,VWS V13.00,2013-09-22 14:10:00,
2013-09-22 10:15:00,79.3,64.2,29.80,NW,315,4.0,15.2,60,0.00,,,0.31,VWS V13.00,2013-09-22 14:15:00,
2013-09-22 10:20:00,80.6,64.0,29.80,NW,315,6.0,15.2,57,0.00,,,0.31,VWS V13.00,2013-09-22 14:20:00,
2013-09-22 10:25:00,81.5,63.8,29.80,North,0,2.4,6.2,55,0.00,,,0.31,VWS V13.00,2013-09-22 14:25:00,
2013-09-22 10:30:00,82.2,63.4,29.80,NW,315,6.2,8.9,53,0.00,,,0.31,VWS V13.00,2013-09-22 14:30:00,
2013-09-22 10:35:00,82.9,64.0,29.80,NNE,22,4.6,10.5,53,0.00,,,0.31,VWS V13.00,2013-09-22 14:35:00,
2013-09-22 10:40:00,83.8,63.2,29.80,NNW,338,8.7,11.6,50,0.00,,,0.31,VWS V13.00,2013-09-22 14:40:00,
2013-09-22 10:45:00,84.0,63.4,29.80,NW,315,6.7,8.7,50,0.00,,,0.31,VWS V13.00,2013-09-22 14:45:00,
2013-09-22 10:50:00,84.3,62.5,29.80,NNW,338,5.3,8.7,48,0.00,,,0.31,VWS V13.00,2013-09-22 14:50:00,
2013-09-22 10:55:00,84.7,62.9,29.80,North,0,9.1,9.1,48,0.00,,,0.31,VWS V13.00,2013-09-22 14:55:00,
2013-09-22 11:00:00,84.9,61.2,29.80,NNW,338,9.3,9.3,45,0.00,,,0.31,VWS V13.00,2013-09-22 15:00:00,
2013-09-22 11:05:00,84.9,60.6,29.80,North,0,1.5,9.3,44,0.00,,,0.31,VWS V13.00,2013-09-22 15:05:00,
2013-09-22 11:10:00,84.7,59.8,29.80,WNW,292,6.2,10.2,43,0.00,,,0.31,VWS V13.00,2013-09-22 15:10:00,
2013-09-22 11:16:00,84.7,60.4,29.80,NNW,338,9.1,10.2,44,0.00,,,0.31,VWS V13.00,2013-09-22 15:16:00,
2013-09-22 11:21:00,85.4,61.0,29.80,NNE,22,0.8,0.8,44,0.00,,,0.31,VWS V13.00,2013-09-22 15:21:00,
2013-09-22 11:26:00,85.6,59.9,29.80,NNW,338,4.0,4.2,42,0.00,,,0.31,VWS V13.00,2013-09-22 15:26:00,
2013-09-22 11:31:00,85.1,58.1,29.80,North,0,6.9,6.9,40,0.00,,,0.31,VWS V13.00,2013-09-22 15:31:00,
2013-09-22 11:36:00,84.5,56.1,29.80,North,0,10.0,10.7,38,0.00,,,0.31,VWS V13.00,2013-09-22 15:36:00,
2013-09-22 11:41:00,84.3,56.7,29.80,NNW,338,3.1,3.1,39,0.00,,,0.31,VWS V13.00,2013-09-22 15:41:00,
2013-09-22 11:46:00,84.9,57.2,29.80,NW,315,4.9,4.9,39,0.00,,,0.31,VWS V13.00,2013-09-22 15:46:00,
2013-09-22 11:51:00,85.8,58.0,29.80,WSW,248,0.0,5.8,39,0.00,,,0.31,VWS V13.00,2013-09-22 15:51:00,
2013-09-22 11:56:00,86.1,58.3,29.80,NNW,338,8.9,8.9,39,0.00,,,0.31,VWS V13.00,2013-09-22 15:56:00,
2013-09-22 12:01:00,85.8,57.3,29.80,NW,315,5.8,5.8,38,0.00,,,0.31,VWS V13.00,2013-09-22 16:01:00,
2013-09-22 12:06:00,86.1,56.8,29.80,NW,315,4.0,5.8,37,0.00,,,0.31,VWS V13.00,2013-09-22 16:06:00,
2013-09-22 12:11:00,86.5,57.2,29.80,WNW,292,6.2,8.0,37,0.00,,,0.31,VWS V13.00,2013-09-22 16:11:00,
2013-09-22 12:16:00,86.1,57.5,29.80,NW,315,0.0,8.0,38,0.00,,,0.31,VWS V13.00,2013-09-22 16:16:00,
2013-09-22 12:21:00,86.3,57.0,29.81,North,0,6.7,6.7,37,0.00,,,0.31,VWS V13.00,2013-09-22 16:21:00,
2013-09-22 12:26:00,86.1,56.8,29.80,NNW,338,8.0,8.0,37,0.00,,,0.31,VWS V13.00,2013-09-22 16:26:00,
2013-09-22 12:31:00,86.1,56.0,29.80,NNW,338,4.2,8.0,36,0.00,,,0.31,VWS V13.00,2013-09-22 16:31:00,
2013-09-22 12:36:00,86.7,56.6,29.80,NNW,338,0.0,8.0,36,0.00,,,0.31,VWS V13.00,2013-09-22 16:36:00,
2013-09-22 12:41:00,86.7,56.6,29.80,North,0,4.9,4.9,36,0.00,,,0.31,VWS V13.00,2013-09-22 16:41:00,
2013-09-22 12:46:00,86.3,57.0,29.80,NNW,338,9.6,9.6,37,0.00,,,0.31,VWS V13.00,2013-09-22 16:46:00,
2013-09-22 12:51:00,85.6,56.4,29.80,NW,315,6.2,14.5,37,0.00,,,0.31,VWS V13.00,2013-09-22 16:51:00,
2013-09-22 12:56:00,85.8,56.5,29.80,NNW,338,2.4,14.5,37,0.00,,,0.31,VWS V13.00,2013-09-22 16:56:00,
2013-09-22 13:01:00,85.6,54.8,29.80,West,270,5.1,5.1,35,0.00,,,0.31,VWS V13.00,2013-09-22 17:01:00,
2013-09-22 13:06:00,84.9,54.2,29.81,NNW,338,6.9,6.9,35,0.00,,,0.31,VWS V13.00,2013-09-22 17:06:00,
2013-09-22 13:11:00,84.5,54.6,29.81,NNW,338,5.1,6.9,36,0.00,,,0.31,VWS V13.00,2013-09-22 17:11:00,
2013-09-22 13:16:00,84.7,54.8,29.80,North,0,9.8,11.1,36,0.00,,,0.31,VWS V13.00,2013-09-22 17:16:00,
2013-09-22 13:21:00,84.7,54.0,29.80,NW,315,3.5,3.5,35,0.00,,,0.31,VWS V13.00,2013-09-22 17:21:00,
2013-09-22 13:26:00,84.3,55.2,29.80,NNE,22,2.0,3.5,37,0.00,,,0.31,VWS V13.00,2013-09-22 17:26:00,
2013-09-22 13:31:00,85.1,55.9,29.80,NNW,338,3.5,4.4,37,0.00,,,0.31,VWS V13.00,2013-09-22 17:31:00,
2013-09-22 13:36:00,84.9,54.2,29.80,North,0,11.4,11.4,35,0.00,,,0.31,VWS V13.00,2013-09-22 17:36:00,
2013-09-22 13:41:00,83.8,53.3,29.80,NNW,338,10.0,11.1,35,0.00,,,0.31,VWS V13.00,2013-09-22 17:41:00,
2013-09-22 13:46:00,83.3,53.6,29.80,NNW,338,6.7,11.1,36,0.00,,,0.31,VWS V13.00,2013-09-22 17:46:00,
2013-09-22 13:51:00,83.1,53.4,29.80,North,0,8.5,11.1,36,0.00,,,0.31,VWS V13.00,2013-09-22 17:51:00,
2013-09-22 13:56:00,83.8,54.8,29.79,NW,315,4.4,11.1,37,0.00,,,0.31,VWS V13.00,2013-09-22 17:56:00,
2013-09-22 14:01:00,83.4,54.4,29.79,NNW,338,3.8,3.8,37,0.00,,,0.31,VWS V13.00,2013-09-22 18:01:00,
2013-09-22 14:06:00,83.8,54.8,29.80,WNW,292,9.1,9.1,37,0.00,,,0.31,VWS V13.00,2013-09-22 18:06:00,
2013-09-22 14:11:00,83.1,54.9,29.80,NW,315,7.8,9.1,38,0.00,,,0.31,VWS V13.00,2013-09-22 18:11:00,
2013-09-22 14:17:00,83.1,54.9,29.79,NNW,338,4.6,9.1,38,0.00,,,0.31,VWS V13.00,2013-09-22 18:17:00,
2013-09-22 14:22:00,83.3,54.3,29.79,NW,315,5.5,5.5,37,0.00,,,0.31,VWS V13.00,2013-09-22 18:22:00,
2013-09-22 14:27:00,83.1,54.2,29.79,NW,315,5.1,6.0,37,0.00,,,0.31,VWS V13.00,2013-09-22 18:27:00,
2013-09-22 14:32:00,82.9,54.0,29.79,NNW,338,3.8,9.8,37,0.00,,,0.31,VWS V13.00,2013-09-22 18:32:00,
2013-09-22 14:37:00,83.3,54.3,29.79,North,0,0.0,9.8,37,0.00,,,0.31,VWS V13.00,2013-09-22 18:37:00,
2013-09-22 14:42:00,83.3,54.3,29.79,WNW,292,0.0,6.0,37,0.00,,,0.31,VWS V13.00,2013-09-22 18:42:00,
2013-09-22 14:47:00,83.3,54.3,29.79,West,270,3.8,6.0,37,0.00,,,0.31,VWS V13.00,2013-09-22 18:47:00,
2013-09-22 14:52:00,83.4,54.4,29.78,North,0,8.7,8.7,37,0.00,,,0.31,VWS V13.00,2013-09-22 18:52:00,
2013-09-22 14:57:00,83.4,54.4,29.79,North,0,4.4,8.7,37,0.00,,,0.31,VWS V13.00,2013-09-22 18:57:00,
2013-09-22 15:02:00,83.3,54.3,29.79,NW,315,11.4,11.4,37,0.00,,,0.31,VWS V13.00,2013-09-22 19:02:00,
2013-09-22 15:07:00,82.5,53.6,29.79,WNW,292,9.6,11.4,37,0.00,,,0.31,VWS V13.00,2013-09-22 19:07:00,
2013-09-22 15:12:00,81.5,53.5,29.78,WNW,292,5.1,11.4,38,0.00,,,0.31,VWS V13.00,2013-09-22 19:12:00,
2013-09-22 15:17:00,81.3,52.6,29.78,ESE,112,1.3,11.4,37,0.00,,,0.31,VWS V13.00,2013-09-22 19:17:00,
2013-09-22 15:22:00,81.1,53.1,29.78,NW,315,7.6,14.7,38,0.00,,,0.31,VWS V13.00,2013-09-22 19:22:00,
2013-09-22 15:27:00,80.7,53.5,29.79,North,0,6.4,14.7,39,0.00,,,0.31,VWS V13.00,2013-09-22 19:27:00,
2013-09-22 15:32:00,79.8,53.4,29.79,WSW,248,4.0,14.7,40,0.00,,,0.31,VWS V13.00,2013-09-22 19:32:00,
2013-09-22 15:37:00,79.5,52.4,29.79,NNE,22,10.2,14.7,39,0.00,,,0.31,VWS V13.00,2013-09-22 19:37:00,
2013-09-22 15:42:00,79.5,52.4,29.79,NNW,338,11.6,11.6,39,0.00,,,0.31,VWS V13.00,2013-09-22 19:42:00,
2013-09-22 15:47:00,79.5,53.1,29.79,West,270,4.2,11.6,40,0.00,,,0.31,VWS V13.00,2013-09-22 19:47:00,
2013-09-22 15:53:00,79.7,53.3,29.79,NNW,338,6.0,11.6,40,0.00,,,0.31,VWS V13.00,2013-09-22 19:53:00,
2013-09-22 15:58:00,79.8,53.4,29.79,NNW,338,8.5,11.6,40,0.00,,,0.31,VWS V13.00,2013-09-22 19:58:00,
2013-09-22 16:03:00,79.1,52.0,29.79,WNW,292,6.2,6.2,39,0.00,,,0.31,VWS V13.00,2013-09-22 20:03:00,
2013-09-22 16:08:00,78.9,51.9,29.79,WNW,292,3.1,6.2,39,0.00,,,0.31,VWS V13.00,2013-09-22 20:08:00,
2013-09-22 16:13:00,78.9,52.5,29.79,North,0,8.2,8.2,40,0.00,,,0.31,VWS V13.00,2013-09-22 20:13:00,
2013-09-22 16:18:00,78.6,50.9,29.79,NW,315,5.3,11.4,38,0.00,,,0.31,VWS V13.00,2013-09-22 20:18:00,
2013-09-22 16:23:00,78.4,51.4,29.79,WNW,292,0.0,9.1,39,0.00,,,0.31,VWS V13.00,2013-09-22 20:23:00,
2013-09-22 16:28:00,78.4,51.4,29.79,NNW,338,9.1,9.1,39,0.00,,,0.31,VWS V13.00,2013-09-22 20:28:00,
2013-09-22 16:33:00,77.7,51.5,29.79,NNW,338,13.1,13.1,40,0.00,,,0.31,VWS V13.00,2013-09-22 20:33:00,
2013-09-22 16:38:00,77.5,51.3,29.80,WNW,292,11.4,13.1,40,0.00,,,0.31,VWS V13.00,2013-09-22 20:38:00,
2013-09-22 16:43:00,76.8,51.3,29.80,NW,315,2.2,3.5,41,0.00,,,0.31,VWS V13.00,2013-09-22 20:43:00,
2013-09-22 16:48:00,76.1,50.7,29.81,NW,315,7.8,9.6,41,0.00,,,0.31,VWS V13.00,2013-09-22 20:48:00,
2013-09-22 16:53:00,75.9,51.2,29.81,NNW,338,7.6,9.6,42,0.00,,,0.31,VWS V13.00,2013-09-22 20:53:00,
2013-09-22 16:58:00,75.7,51.0,29.81,West,270,15.4,15.4,42,0.00,,,0.31,VWS V13.00,2013-09-22 20:58:00,
2013-09-22 17:03:00,75.3,51.3,29.81,NNW,338,3.3,10.5,43,0.00,,,0.31,VWS V13.00,2013-09-22 21:03:00,
2013-09-22 17:08:00,75.3,50.7,29.81,NNW,338,4.4,10.5,42,0.00,,,0.31,VWS V13.00,2013-09-22 21:08:00,
2013-09-22 17:13:00,74.8,50.2,29.81,NW,315,5.8,19.6,42,0.00,,,0.31,VWS V13.00,2013-09-22 21:13:00,
2013-09-22 17:19:00,74.8,50.8,29.81,NW,315,14.0,19.6,43,0.00,,,0.31,VWS V13.00,2013-09-22 21:19:00,
2013-09-22 17:24:00,74.4,49.8,29.81,WNW,292,6.2,6.2,42,0.00,,,0.31,VWS V13.00,2013-09-22 21:24:00,
2013-09-22 17:29:00,74.1,50.2,29.81,West,270,3.3,10.0,43,0.00,,,0.31,VWS V13.00,2013-09-22 21:29:00,
2013-09-22 17:34:00,73.7,49.8,29.82,WNW,292,3.1,10.0,43,0.00,,,0.31,VWS V13.00,2013-09-22 21:34:00,
2013-09-22 17:39:00,73.4,49.6,29.82,WSW,248,3.5,10.0,43,0.00,,,0.31,VWS V13.00,2013-09-22 21:39:00,
2013-09-22 17:44:00,73.0,48.6,29.82,NW,315,10.7,12.0,42,0.00,,,0.31,VWS V13.00,2013-09-22 21:44:00,
2013-09-22 17:49:00,72.6,48.8,29.82,WNW,292,3.8,12.0,43,0.00,,,0.31,VWS V13.00,2013-09-22 21:49:00,
2013-09-22 17:54:00,72.5,50.0,29.82,NNE,22,3.5,12.0,45,0.00,,,0.31,VWS V13.00,2013-09-22 21:54:00,
2013-09-22 17:59:00,72.3,49.8,29.82,WNW,292,4.9,12.0,45,0.00,,,0.31,VWS V13.00,2013-09-22 21:59:00,
2013-09-22 18:04:00,72.1,49.6,29.83,WSW,248,5.1,5.1,45,0.00,,,0.31,VWS V13.00,2013-09-22 22:04:00,
2013-09-22 18:09:00,71.9,49.4,29.83,NNW,338,13.4,13.4,45,0.00,,,0.31,VWS V13.00,2013-09-22 22:09:00,
2013-09-22 18:14:00,71.4,48.4,29.83,North,0,6.9,13.4,44,0.00,,,0.31,VWS V13.00,2013-09-22 22:14:00,
2013-09-22 18:19:00,71.2,48.8,29.84,NW,315,5.3,13.4,45,0.00,,,0.31,VWS V13.00,2013-09-22 22:19:00,
2013-09-22 18:24:00,70.8,48.4,29.84,NNW,338,7.8,10.2,45,0.00,,,0.31,VWS V13.00,2013-09-22 22:24:00,
2013-09-22 18:29:00,70.7,48.9,29.84,WNW,292,3.1,10.2,46,0.00,,,0.31,VWS V13.00,2013-09-22 22:29:00,
2013-09-22 18:34:00,70.5,48.8,29.84,NNW,338,1.1,10.2,46,0.00,,,0.31,VWS V13.00,2013-09-22 22:34:00,
2013-09-22 18:39:00,70.3,49.1,29.84,NNW,338,12.5,12.5,47,0.00,,,0.31,VWS V13.00,2013-09-22 22:39:00,
2013-09-22 18:44:00,69.9,48.8,29.84,North,0,2.9,8.0,47,0.00,,,0.31,VWS V13.00,2013-09-22 22:44:00,
2013-09-22 18:49:00,69.6,49.1,29.85,NNW,338,5.3,8.0,48,0.00,,,0.31,VWS V13.00,2013-09-22 22:49:00,
2013-09-22 18:54:00,69.4,49.4,29.85,NNW,338,4.0,8.0,49,0.00,,,0.31,VWS V13.00,2013-09-22 22:54:00,
2013-09-22 18:59:00,69.0,49.6,29.84,NW,315,2.4,8.0,50,0.00,,,0.31,VWS V13.00,2013-09-22 22:59:00,
2013-09-22 19:04:00,68.7,49.3,29.84,North,0,4.6,4.6,50,0.00,,,0.31,VWS V13.00,2013-09-22 23:04:00,
2013-09-22 19:09:00,68.5,49.2,29.85,NW,315,0.0,4.6,50,0.00,,,0.31,VWS V13.00,2013-09-22 23:09:00,
2013-09-22 19:14:00,68.1,49.3,29.85,NNW,338,5.1,6.0,51,0.00,,,0.31,VWS V13.00,2013-09-22 23:14:00,
2013-09-22 19:19:00,68.1,49.3,29.85,North,0,0.0,6.0,51,0.00,,,0.31,VWS V13.00,2013-09-22 23:19:00,
2013-09-22 19:24:00,67.8,49.5,29.85,NW,315,1.3,3.1,52,0.00,,,0.31,VWS V13.00,2013-09-22 23:24:00,
2013-09-22 19:29:00,67.8,49.5,29.85,West,270,0.0,4.6,52,0.00,,,0.31,VWS V13.00,2013-09-22 23:29:00,
2013-09-22 19:34:00,67.6,49.9,29.85,NW,315,5.8,5.8,53,0.00,,,0.31,VWS V13.00,2013-09-22 23:34:00,
2013-09-22 19:39:00,67.6,49.9,29.85,NNW,338,2.4,5.8,53,0.00,,,0.31,VWS V13.00,2013-09-22 23:39:00,
2013-09-22 19:44:00,67.2,50.0,29.86,NNW,338,3.8,5.1,54,0.00,,,0.31,VWS V13.00,2013-09-22 23:44:00,
2013-09-22 19:49:00,67.1,49.4,29.86,NNW,338,7.3,7.3,53,0.00,,,0.31,VWS V13.00,2013-09-22 23:49:00,
2013-09-22 19:55:00,66.7,49.5,29.86,NW,315,0.0,7.3,54,0.00,,,0.31,VWS V13.00,2013-09-22 23:55:00,
2013-09-22 20:00:00,66.7,49.5,29.87,NW,315,0.0,7.3,54,0.00,,,0.31,VWS V13.00,2013-09-23 00:00:00,
2013-09-22 20:05:00,66.5,49.8,29.86,NNW,338,2.4,4.0,55,0.00,,,0.31,VWS V13.00,2013-09-23 00:05:00,
2013-09-22 20:10:00,66.5,49.8,29.87,NW,315,4.4,4.4,55,0.00,,,0.31,VWS V13.00,2013-09-23 00:10:00,
2013-09-22 20:15:00,66.3,50.2,29.87,North,0,4.4,5.3,56,0.00,,,0.31,VWS V13.00,2013-09-23 00:15:00,
2013-09-22 20:20:00,66.0,49.4,29.87,NNW,338,4.9,5.3,55,0.00,,,0.31,VWS V13.00,2013-09-23 00:20:00,
2013-09-22 20:25:00,66.0,49.9,29.88,West,270,0.8,4.9,56,0.00,,,0.31,VWS V13.00,2013-09-23 00:25:00,
2013-09-22 20:30:00,66.0,49.4,29.88,NNE,22,1.7,4.9,55,0.00,,,0.31,VWS V13.00,2013-09-23 00:30:00,
2013-09-22 20:35:00,65.8,49.2,29.88,NNW,338,6.4,6.4,55,0.00,,,0.31,VWS V13.00,2013-09-23 00:35:00,
2013-09-22 20:40:00,65.8,49.2,29.88,North,0,1.3,6.4,55,0.00,,,0.31,VWS V13.00,2013-09-23 00:40:00,
2013-09-22 20:45:00,65.8,49.2,29.88,WNW,292,5.1,5.1,55,0.00,,,0.31,VWS V13.00,2013-09-23 00:45:00,
2013-09-22 20:50:00,65.6,49.0,29.88,NW,315,7.6,7.6,55,0.00,,,0.31,VWS V13.00,2013-09-23 00:50:00,
2013-09-22 20:55:00,65.4,48.8,29.88,North,0,6.9,7.6,55,0.00,,,0.31,VWS V13.00,2013-09-23 00:55:00,
2013-09-22 21:00:00,65.3,48.7,29.88,NW,315,11.8,11.8,55,0.00,,,0.31,VWS V13.00,2013-09-23 01:00:00,
2013-09-22 21:05:00,65.3,48.7,29.88,WNW,292,1.7,11.8,55,0.00,,,0.31,VWS V13.00,2013-09-23 01:05:00,
2013-09-22 21:11:00,65.1,49.0,29.88,NNW,338,4.6,11.8,56,0.00,,,0.31,VWS V13.00,2013-09-23 01:11:00,
2013-09-22 21:16:00,65.1,48.5,29.88,NNW,338,4.9,11.8,55,0.00,,,0.31,VWS V13.00,2013-09-23 01:16:00,
2013-09-22 21:21:00,64.9,47.9,29.89,WNW,292,9.6,9.6,54,0.00,,,0.31,VWS V13.00,2013-09-23 01:21:00,
2013-09-22 21:26:00,64.7,47.7,29.89,North,0,8.0,9.6,54,0.00,,,0.31,VWS V13.00,2013-09-23 01:26:00,
2013-09-22 21:31:00,64.5,48.0,29.89,WNW,292,9.1,9.6,55,0.00,,,0.31,VWS V13.00,2013-09-23 01:31:00,
2013-09-22 21:36:00,64.5,48.0,29.89,NNW,338,11.8,11.8,55,0.00,,,0.31,VWS V13.00,2013-09-23 01:36:00,
2013-09-22 21:41:00,64.2,48.2,29.89,WNW,292,8.0,8.0,56,0.00,,,0.31,VWS V13.00,2013-09-23 01:41:00,
2013-09-22 21:46:00,64.0,48.5,29.89,NNW,338,5.8,9.3,57,0.00,,,0.31,VWS V13.00,2013-09-23 01:46:00,
2013-09-22 21:52:00,63.6,48.1,29.89,North,0,4.6,9.3,57,0.00,,,0.31,VWS V13.00,2013-09-23 01:52:00,
2013-09-22 21:57:00,63.5,48.0,29.90,NW,315,10.0,10.0,57,0.00,,,0.31,VWS V13.00,2013-09-23 01:57:00,
2013-09-22 22:02:00,63.3,48.3,29.90,NNW,338,8.7,8.7,58,0.00,,,0.31,VWS V13.00,2013-09-23 02:02:00,
2013-09-22 22:07:00,63.3,48.3,29.90,North,0,2.2,10.5,58,0.00,,,0.31,VWS V13.00,2013-09-23 02:07:00,
2013-09-22 22:12:00,63.1,48.6,29.91,NNW,338,7.3,13.6,59,0.00,,,0.31,VWS V13.00,2013-09-23 02:12:00,
2013-09-22 22:17:00,63.1,48.6,29.90,North,0,4.6,13.6,59,0.00,,,0.31,VWS V13.00,2013-09-23 02:17:00,
2013-09-22 22:22:00,62.9,48.4,29.91,North,0,10.0,13.6,59,0.00,,,0.31,VWS V13.00,2013-09-23 02:22:00,
2013-09-22 22:27:00,62.7,48.2,29.91,NNW,338,10.9,13.6,59,0.00,,,0.31,VWS V13.00,2013-09-23 02:27:00,
2013-09-22 22:32:00,62.7,48.2,29.91,North,0,7.1,13.6,59,0.00,,,0.31,VWS V13.00,2013-09-23 02:32:00,
2013-09-22 22:37:00,62.7,48.2,29.91,NNW,338,6.9,13.6,59,0.00,,,0.31,VWS V13.00,2013-09-23 02:37:00,
2013-09-22 22:42:00,62.4,47.9,29.91,NNW,338,9.3,9.3,59,0.00,,,0.31,VWS V13.00,2013-09-23 02:42:00,
2013-09-22 22:47:00,62.4,47.9,29.91,NNW,338,8.5,9.3,59,0.00,,,0.31,VWS V13.00,2013-09-23 02:47:00,
2013-09-22 22:52:00,62.2,47.7,29.91,North,0,6.7,9.3,59,0.00,,,0.31,VWS V13.00,2013-09-23 02:52:00,
2013-09-22 22:57:00,62.0,47.5,29.91,NNW,338,9.1,9.3,59,0.00,,,0.31,VWS V13.00,2013-09-23 02:57:00,
2013-09-22 23:02:00,62.2,48.2,29.91,North,0,11.1,11.1,60,0.00,,,0.31,VWS V13.00,2013-09-23 03:02:00,
2013-09-22 23:07:00,61.8,47.8,29.91,NNE,22,15.2,15.2,60,0.00,,,0.31,VWS V13.00,2013-09-23 03:07:00,
2013-09-22 23:12:00,61.5,47.5,29.91,ENE,68,5.1,15.2,60,0.00,,,0.31,VWS V13.00,2013-09-23 03:12:00,
2013-09-22 23:17:00,61.5,47.9,29.91,NNE,22,6.2,15.2,61,0.00,,,0.31,VWS V13.00,2013-09-23 03:17:00,
2013-09-22 23:23:00,61.5,47.9,29.91,North,0,9.6,9.6,61,0.00,,,0.31,VWS V13.00,2013-09-23 03:23:00,
2013-09-22 23:28:00,61.3,47.8,29.91,NNW,338,7.1,10.2,61,0.00,,,0.31,VWS V13.00,2013-09-23 03:28:00,
2013-09-22 23:33:00,61.1,47.6,29.91,NNW,338,8.9,10.2,61,0.00,,,0.31,VWS V13.00,2013-09-23 03:33:00,
2013-09-22 23:38:00,60.9,47.4,29.91,NNW,338,15.8,15.8,61,0.00,,,0.31,VWS V13.00,2013-09-23 03:38:00,
2013-09-22 23:43:00,60.6,47.1,29.91,North,0,16.7,16.7,61,0.00,,,0.31,VWS V13.00,2013-09-23 03:43:00,
2013-09-22 23:48:00,60.6,47.1,29.91,North,0,4.6,16.7,61,0.00,,,0.31,VWS V13.00,2013-09-23 03:48:00,
2013-09-22 23:53:00,60.4,47.3,29.91,NNW,338,10.0,16.7,62,0.00,,,0.31,VWS V13.00,2013-09-23 03:53:00,
2013-09-22 23:58:00,60.4,47.8,29.91,NNW,338,3.3,16.7,63,0.00,,,0.31,VWS V13.00,2013-09-23 03:58:00,